Terminal Aerodrome Forecast
Issued by NWS Wilmington, OH

Current Version | Previous Version | Graphics & Text | Print | Product List | Glossary On
Versions: 1 2 3 4 5 6 7 8 9 10 11 12 13 14 15 16
000
FTUS41 KILN 260900 AAA
TAFDAY
TAF AMD
KDAY 260907Z 2609/2706 15004KT P6SM SCT250
      TEMPO 2609/2613 4SM BR
     FM261300 17004KT P6SM SCT250
     FM261500 20005KT P6SM SCT035 SCT250
     FM262300 24005KT P6SM SCT250=

USA.gov is the U.S. government's official web portal to all federal, state and local government web resources and services.